Time;durP1;ratioP1;P1;durP2;ratioP2;P2;SDS_P1;SDS_P2;PMS_P1;PMS_P2;Temp;Humidity;BMP_temperature;BMP_pressure;BME280_temperature;BME280_humidity;BME280_pressure;Samples;Min_cycle;Max_cycle;Signal;HPM_P1;HPM_P2
2021/12/25 00:01:13;;;;;;;5.82;2.63;;;;;;;-5.61;100.00;100554.91;7391139;19;20451;-45
2021/12/25 00:03:43;;;;;;;5.97;1.25;;;;;;;-5.66;100.00;100557.69;7395056;19;20123;-49
2021/12/25 00:06:13;;;;;;;7.70;3.05;;;;;;;-5.70;100.00;100551.44;7390080;19;20186;-44
2021/12/25 00:08:43;;;;;;;4.05;1.30;;;;;;;-5.83;100.00;100555.19;7392911;19;20172;-47
2021/12/25 00:11:12;;;;;;;6.97;1.63;;;;;;;-5.88;100.00;100563.91;7390647;19;20476;-44
2021/12/25 00:13:42;;;;;;;4.90;1.80;;;;;;;-5.95;100.00;100563.97;7394913;19;20135;-48
2021/12/25 00:16:14;;;;;;;5.18;2.05;;;;;;;-5.99;100.00;100566.91;7387009;19;20190;-49
2021/12/25 00:18:47;;;;;;;9.40;1.58;;;;;;;-5.91;100.00;100566.06;7392769;19;20561;-47
2021/12/25 00:21:16;;;;;;;3.42;1.67;;;;;;;-6.02;100.00;100566.59;7392588;19;20204;-44
2021/12/25 00:23:49;;;;;;;4.93;1.75;;;;;;;-6.06;100.00;100575.44;7396111;19;20518;-49
2021/12/25 00:26:37;;;;;;;8.18;2.90;;;;;;;-5.94;100.00;100577.44;7401253;19;20178;-44
2021/12/25 00:29:30;;;;;;;6.65;2.20;;;;;;;-6.10;100.00;100579.25;7397092;19;20145;-45
2021/12/25 00:32:12;;;;;;;8.02;3.28;;;;;;;-5.99;100.00;100587.88;7401790;19;20123;-45
2021/12/25 00:34:42;;;;;;;12.43;3.72;;;;;;;-5.85;100.00;100591.84;7396887;19;20242;-47
2021/12/25 00:37:12;;;;;;;6.43;3.30;;;;;;;-5.91;100.00;100595.38;7400370;19;20162;-44
2021/12/25 00:39:45;;;;;;;8.75;2.80;;;;;;;-5.88;100.00;100591.53;7398336;19;20186;-46
2021/12/25 00:42:16;;;;;;;8.75;2.90;;;;;;;-5.92;100.00;100599.47;7398969;19;20777;-49
2021/12/25 00:44:46;;;;;;;6.85;2.80;;;;;;;-6.07;100.00;100615.50;7398056;19;20190;-48
2021/12/25 00:47:18;;;;;;;14.93;5.38;;;;;;;-5.99;100.00;100607.13;7399845;19;20181;-46
2021/12/25 00:49:48;;;;;;;5.65;3.00;;;;;;;-5.80;100.00;100611.56;7397750;19;20230;-46
2021/12/25 00:52:17;;;;;;;7.15;3.10;;;;;;;-5.77;100.00;100611.88;7401379;19;20119;-48
2021/12/25 00:54:47;;;;;;;9.85;3.10;;;;;;;-5.76;100.00;100617.06;7395414;19;20183;-46
2021/12/25 00:57:17;;;;;;;14.55;4.72;;;;;;;-5.83;100.00;100624.69;7399453;19;20155;-46
2021/12/25 00:59:46;;;;;;;10.68;4.45;;;;;;;-5.89;100.00;100624.94;7397774;19;20194;-48
2021/12/25 01:02:18;;;;;;;5.45;2.05;;;;;;;-5.98;100.00;100629.91;7399716;19;20179;-45
2021/12/25 01:04:48;;;;;;;7.80;2.58;;;;;;;-6.06;100.00;100629.84;7398390;19;20190;-47
2021/12/25 01:07:17;;;;;;;4.97;2.90;;;;;;;-6.22;100.00;100635.75;7400638;19;20155;-50
2021/12/25 01:09:49;;;;;;;6.30;3.00;;;;;;;-6.29;100.00;100643.34;7398740;19;20203;-43
2021/12/25 01:12:18;;;;;;;7.07;2.90;;;;;;;-6.74;100.00;100644.47;7402673;19;20665;-45
2021/12/25 01:14:53;;;;;;;6.32;3.30;;;;;;;-6.96;100.00;100646.25;7399398;19;20190;-44
2021/12/25 01:17:46;;;;;;;8.07;3.15;;;;;;;-6.92;100.00;100634.22;7401393;19;20162;-48
2021/12/25 01:20:31;;;;;;;8.70;3.30;;;;;;;-6.84;100.00;100636.66;7399375;19;20593;-43
2021/12/25 01:26:13;;;;;;;10.68;3.30;;;;;;;-6.87;100.00;100644.75;7398838;19;20190;-45
2021/12/25 01:29:14;;;;;;;9.15;3.40;;;;;;;-6.89;100.00;100647.84;7401405;19;20487;-45
2021/12/25 01:31:49;;;;;;;10.98;3.72;;;;;;;-6.92;100.00;100656.78;7403113;19;20174;-45
2021/12/25 01:34:53;;;;;;;7.05;3.40;;;;;;;-6.68;100.00;100652.69;7399700;19;20253;-42
2021/12/25 01:37:26;;;;;;;7.03;2.65;;;;;;;-6.75;100.00;100652.75;7400155;19;20483;-43
2021/12/25 01:40:12;;;;;;;6.60;3.28;;;;;;;-6.69;100.00;100648.38;7400443;19;20186;-45
2021/12/25 01:48:14;;;;;;;16.30;5.35;;;;;;;-6.18;100.00;100652.94;7401025;19;20613;-47
2021/12/25 01:50:46;;;;;;;8.95;3.90;;;;;;;-6.11;100.00;100655.38;7399827;19;20258;-46
2021/12/25 01:53:16;;;;;;;9.35;3.13;;;;;;;-6.29;100.00;100660.94;7402761;19;20123;-44
2021/12/25 01:55:47;;;;;;;7.65;3.65;;;;;;;-6.30;100.00;100666.69;7398916;19;20196;-46
2021/12/25 01:58:17;;;;;;;11.15;5.00;;;;;;;-6.43;100.00;100662.88;7401155;19;20157;-49
2021/12/25 02:00:49;;;;;;;12.68;4.05;;;;;;;-6.43;100.00;100662.88;7399148;19;20186;-44
2021/12/25 02:03:21;;;;;;;6.47;3.38;;;;;;;-6.52;100.00;100670.28;7402159;19;20134;-46
2021/12/25 02:05:54;;;;;;;8.70;3.63;;;;;;;-6.31;100.00;100662.41;7394250;19;20464;-46
2021/12/25 02:08:24;;;;;;;8.82;2.95;;;;;;;-6.21;100.00;100669.31;7400982;19;20159;-46
2021/12/25 02:10:53;;;;;;;7.50;3.38;;;;;;;-6.21;100.00;100675.19;7399406;19;20186;-49
2021/12/25 02:13:23;;;;;;;6.45;3.15;;;;;;;-6.13;100.00;100660.94;7404473;19;20127;-46
2021/12/25 02:15:55;;;;;;;6.82;3.22;;;;;;;-6.29;100.00;100668.47;7398208;19;20251;-44
2021/12/25 02:18:30;;;;;;;13.93;3.60;;;;;;;-6.37;100.00;100668.53;7405164;19;20170;-47
2021/12/25 02:21:10;;;;;;;10.40;4.75;;;;;;;-6.39;100.00;100667.50;7398911;19;20628;-47
2021/12/25 02:23:39;;;;;;;13.88;4.20;;;;;;;-6.39;100.00;100670.00;7401998;19;20127;-44
2021/12/25 02:26:09;;;;;;;15.15;4.28;;;;;;;-6.48;100.00;100679.03;7398105;19;20188;-48
2021/12/25 02:28:39;;;;;;;15.57;4.70;;;;;;;-6.39;100.00;100672.53;7400242;19;20153;-44
2021/12/25 02:31:10;;;;;;;13.75;4.68;;;;;;;-6.32;100.00;100680.72;7396262;19;20186;-47
2021/12/25 02:33:41;;;;;;;8.15;3.70;;;;;;;-6.43;100.00;100677.94;7402905;19;20127;-45
2021/12/25 02:36:14;;;;;;;12.63;3.88;;;;;;;-6.49;100.00;100684.78;7399384;19;20446;-48
2021/12/25 02:38:44;;;;;;;15.30;4.15;;;;;;;-6.41;100.00;100683.13;7400016;19;20154;-47
2021/12/25 02:41:14;;;;;;;10.75;4.13;;;;;;;-6.65;100.00;100680.63;7398071;19;20188;-46
2021/12/25 02:43:45;;;;;;;12.00;4.07;;;;;;;-6.71;100.00;100679.97;7401419;19;20171;-44
2021/12/25 02:46:16;;;;;;;16.88;4.35;;;;;;;-6.74;100.00;100679.63;7397244;19;20178;-44
2021/12/25 02:48:46;;;;;;;28.27;8.13;;;;;;;-6.58;100.00;100686.28;7399376;19;20159;-50
2021/12/25 02:51:18;;;;;;;15.15;4.35;;;;;;;-6.57;100.00;100688.97;7397921;19;20625;-45
2021/12/25 02:53:47;;;;;;;9.00;4.38;;;;;;;-6.78;100.00;100692.53;7401133;19;20171;-45
2021/12/25 02:56:17;;;;;;;15.40;3.92;;;;;;;-6.82;100.00;100690.44;7399813;19;20222;-47
2021/12/25 02:58:47;;;;;;;12.02;3.92;;;;;;;-6.60;100.00;100692.78;7399362;19;20155;-46
2021/12/25 03:01:18;;;;;;;15.23;4.82;;;;;;;-6.67;100.00;100687.09;7399700;19;20226;-47
2021/12/25 03:03:48;;;;;;;18.98;5.35;;;;;;;-6.66;100.00;100701.41;7401557;19;20119;-48
2021/12/25 03:06:21;;;;;;;23.73;6.95;;;;;;;-6.57;100.00;100694.00;7400229;19;20185;-48
2021/12/25 03:08:50;;;;;;;24.48;6.18;;;;;;;-6.58;100.00;100701.34;7398701;19;20158;-45
2021/12/25 03:11:20;;;;;;;11.63;3.95;;;;;;;-6.60;100.00;100703.72;7399790;19;20250;-45
2021/12/25 03:14:10;;;;;;;13.38;4.28;;;;;;;-6.64;100.00;100711.63;7400430;19;20186;-49
2021/12/25 03:16:41;;;;;;;10.77;4.28;;;;;;;-6.60;100.00;100711.25;7399601;19;20198;-47
2021/12/25 03:19:19;;;;;;;12.25;4.30;;;;;;;-6.63;100.00;100710.91;7397501;19;20137;-46
2021/12/25 03:21:51;;;;;;;16.30;4.80;;;;;;;-6.54;100.00;100714.44;7399916;19;20186;-48
2021/12/25 03:24:21;;;;;;;11.63;4.03;;;;;;;-6.41;100.00;100719.16;7397141;19;20193;-45
2021/12/25 03:26:52;;;;;;;14.18;5.72;;;;;;;-6.12;100.00;100713.88;7399068;19;20134;-51
2021/12/25 03:29:22;;;;;;;18.08;4.40;;;;;;;-6.30;100.00;100720.31;7396926;19;20209;-46
2021/12/25 03:31:51;;;;;;;16.17;4.88;;;;;;;-6.29;100.00;100722.13;7399659;19;20193;-46
2021/12/25 03:34:21;;;;;;;10.75;4.43;;;;;;;-6.59;100.00;100730.59;7396640;19;20175;-44
2021/12/25 03:36:53;;;;;;;11.00;3.60;;;;;;;-6.82;100.00;100728.97;7398770;19;20513;-45
2021/12/25 03:39:22;;;;;;;10.70;3.60;;;;;;;-6.91;100.00;100733.84;7395543;19;20186;-47
2021/12/25 03:41:52;;;;;;;9.25;4.15;;;;;;;-6.80;100.00;100727.53;7399370;19;20130;-43
2021/12/25 03:44:21;;;;;;;10.27;3.35;;;;;;;-6.70;100.00;100729.44;7396639;19;20197;-43
2021/12/25 03:46:52;;;;;;;12.40;3.25;;;;;;;-6.72;100.00;100730.88;7398567;19;20418;-45
2021/12/25 03:49:44;;;;;;;10.38;3.60;;;;;;;-6.69;100.00;100731.22;7394575;19;20663;-44
2021/12/25 03:57:50;;;;;;;13.98;4.70;;;;;;;-6.98;100.00;100726.38;7397949;19;20211;-48
2021/12/25 04:00:27;;;;;;;16.58;6.20;;;;;;;-6.97;100.00;100724.78;7402359;19;20209;-47
2021/12/25 04:03:04;;;;;;;11.07;4.05;;;;;;;-7.02;100.00;100728.38;7405483;19;20126;-50
2021/12/25 04:05:36;;;;;;;14.25;4.55;;;;;;;-7.04;100.00;100728.19;7401418;19;20186;-46
2021/12/25 04:08:11;;;;;;;11.48;4.20;;;;;;;-7.14;100.00;100736.31;7406037;19;20238;-47
2021/12/25 04:10:42;;;;;;;14.07;3.75;;;;;;;-7.29;100.00;100732.09;7402974;19;20186;-43
2021/12/25 04:13:14;;;;;;;10.45;3.50;;;;;;;-7.33;100.00;100733.38;7406530;19;20123;-45
2021/12/25 04:15:45;;;;;;;7.35;3.58;;;;;;;-7.24;100.00;100736.03;7402108;19;20246;-46
2021/12/25 04:18:14;;;;;;;8.00;3.17;;;;;;;-7.20;100.00;100734.03;7404121;19;20162;-46
2021/12/25 04:20:44;;;;;;;8.38;3.53;;;;;;;-7.13;100.00;100730.56;7403481;19;20178;-47
2021/12/25 04:23:23;;;;;;;9.63;3.30;;;;;;;-7.18;100.00;100732.56;7404264;19;20123;-44
2021/12/25 04:25:53;;;;;;;13.27;3.35;;;;;;;-7.21;100.00;100733.84;7399698;19;20190;-49
2021/12/25 04:28:34;;;;;;;7.35;3.53;;;;;;;-7.30;100.00;100737.84;7403508;19;20196;-46
2021/12/25 04:31:24;;;;;;;16.23;4.75;;;;;;;-7.48;100.00;100738.44;7402147;19;20193;-47
2021/12/25 05:03:51;;;;;;;8.27;4.05;;;;;;;-7.70;100.00;100761.78;7402741;19;20123;-45
2021/12/25 05:06:23;;;;;;;18.35;6.90;;;;;;;-7.60;100.00;100752.97;7403176;19;20591;-49
2021/12/25 05:08:52;;;;;;;7.88;3.58;;;;;;;-7.71;100.00;100760.88;7398649;19;20162;-49
2021/12/25 05:11:25;;;;;;;6.78;4.15;;;;;;;-7.69;100.00;100761.06;7403494;19;20137;-48
2021/12/25 05:13:55;;;;;;;8.95;3.90;;;;;;;-7.54;100.00;100767.81;7401185;19;20134;-46
2021/12/25 05:16:26;;;;;;;10.00;5.00;;;;;;;-7.35;100.00;100762.38;7403396;19;20203;-48
2021/12/25 05:18:55;;;;;;;10.40;4.80;;;;;;;-7.36;100.00;100760.59;7398289;19;20158;-48
2021/12/25 05:21:25;;;;;;;12.45;5.47;;;;;;;-7.36;100.00;100763.09;7403266;19;20179;-44
2021/12/25 05:23:55;;;;;;;12.38;4.22;;;;;;;-7.32;100.00;100765.25;7399372;19;20126;-45
2021/12/25 05:26:27;;;;;;;8.00;3.80;;;;;;;-7.32;100.00;100765.25;7402829;19;20119;-43
2021/12/25 05:29:01;;;;;;;10.38;5.10;;;;;;;-7.36;100.00;100769.03;7397988;19;20258;-45
2021/12/25 05:31:32;;;;;;;8.70;3.90;;;;;;;-7.50;100.00;100774.97;7402994;19;20126;-46
2021/12/25 05:34:02;;;;;;;6.28;3.30;;;;;;;-7.61;100.00;100772.84;7400458;19;20433;-47
2021/12/25 05:36:32;;;;;;;4.93;2.90;;;;;;;-7.66;100.00;100769.81;7403270;19;20127;-43
2021/12/25 05:39:04;;;;;;;8.65;3.95;;;;;;;-7.36;100.00;100768.13;7398479;19;20175;-46
2021/12/25 05:41:36;;;;;;;8.88;3.60;;;;;;;-7.23;100.00;100776.31;7402890;19;20123;-47
2021/12/25 05:44:07;;;;;;;8.55;3.17;;;;;;;-7.28;100.00;100772.38;7397417;19;20129;-49
2021/12/25 05:46:40;;;;;;;6.38;3.33;;;;;;;-7.40;100.00;100771.03;7402360;19;20143;-43
2021/12/25 05:49:10;;;;;;;5.60;2.40;;;;;;;-7.43;100.00;100775.66;7400058;19;20142;-46
2021/12/25 05:51:39;;;;;;;5.07;2.95;;;;;;;-7.53;100.00;100777.16;7403084;19;20178;-46
2021/12/25 05:54:09;;;;;;;5.75;2.90;;;;;;;-7.55;100.00;100775.19;7398597;19;20125;-47
2021/12/25 05:56:42;;;;;;;7.97;2.60;;;;;;;-7.62;100.00;100776.06;7402145;19;20119;-49
2021/12/25 05:59:11;;;;;;;6.93;3.00;;;;;;;-7.68;100.00;100775.38;7399306;19;20325;-50
2021/12/25 06:01:41;;;;;;;5.63;3.15;;;;;;;-7.66;100.00;100776.44;7402607;19;20450;-51
2021/12/25 06:04:11;;;;;;;7.57;3.50;;;;;;;-7.65;100.00;100784.13;7397815;19;20228;-46
2021/12/25 06:06:41;;;;;;;6.68;3.35;;;;;;;-7.66;100.00;100781.44;7401513;19;20131;-46
2021/12/25 06:09:11;;;;;;;6.65;3.33;;;;;;;-7.63;100.00;100780.19;7401883;19;20210;-48
2021/12/25 06:11:45;;;;;;;6.72;3.40;;;;;;;-7.65;100.00;100783.25;7402241;19;20183;-53
2021/12/25 06:14:18;;;;;;;8.38;3.40;;;;;;;-7.78;100.00;100774.34;7399039;19;20245;-48
2021/12/25 06:16:48;;;;;;;6.53;3.38;;;;;;;-7.75;100.00;100779.69;7401230;19;20143;-46
2021/12/25 06:19:18;;;;;;;7.85;2.95;;;;;;;-7.66;100.00;100782.34;7398671;19;20196;-44
2021/12/25 06:21:49;;;;;;;9.82;3.75;;;;;;;-7.69;100.00;100786.13;7400673;19;20154;-46
2021/12/25 06:24:20;;;;;;;10.85;4.30;;;;;;;-7.75;100.00;100781.31;7396982;19;20238;-47
2021/12/25 06:26:52;;;;;;;12.50;4.88;;;;;;;-7.77;100.00;100783.63;7404110;19;20135;-47
2021/12/25 06:29:23;;;;;;;21.20;4.32;;;;;;;-7.77;100.00;100781.13;7398237;19;20182;-48
2021/12/25 06:31:52;;;;;;;9.60;3.55;;;;;;;-7.94;100.00;100784.22;7401590;19;20222;-46
2021/12/25 06:34:22;;;;;;;6.40;3.13;;;;;;;-8.03;100.00;100784.03;7398138;19;20214;-45
2021/12/25 06:36:52;;;;;;;7.28;3.00;;;;;;;-8.10;100.00;100785.63;7400627;19;20129;-50
2021/12/25 06:39:21;;;;;;;8.15;3.30;;;;;;;-8.02;100.00;100785.81;7399061;19;20456;-45
2021/12/25 06:41:53;;;;;;;6.13;3.30;;;;;;;-7.97;100.00;100792.97;7400838;19;20130;-44
2021/12/25 06:44:24;;;;;;;9.77;4.10;;;;;;;-7.98;100.00;100791.16;7397598;19;20250;-45
2021/12/25 06:46:54;;;;;;;9.77;3.20;;;;;;;-7.98;100.00;100794.56;7400272;19;20154;-45
2021/12/25 06:49:25;;;;;;;10.27;3.30;;;;;;;-7.98;100.00;100802.09;7392519;19;20595;-46
2021/12/25 06:51:54;;;;;;;8.85;4.05;;;;;;;-7.83;100.00;100797.06;7400970;19;20145;-44
2021/12/25 06:54:24;;;;;;;13.15;4.05;;;;;;;-7.79;100.00;100806.72;7397160;19;20183;-51
2021/12/25 06:56:56;;;;;;;16.40;4.75;;;;;;;-7.77;100.00;100797.75;7399565;19;20469;-46
2021/12/25 06:59:25;;;;;;;29.80;12.25;;;;;;;-7.86;100.00;100795.09;7398175;19;20190;-47
2021/12/25 07:01:55;;;;;;;11.77;4.13;;;;;;;-7.92;100.00;100792.78;7400531;19;20129;-47
2021/12/25 07:04:24;;;;;;;8.88;3.95;;;;;;;-7.94;100.00;100798.31;7396019;19;20202;-46
2021/12/25 07:06:54;;;;;;;8.40;3.95;;;;;;;-8.00;100.00;100811.94;7399338;19;20222;-45
2021/12/25 07:09:23;;;;;;;9.13;4.68;;;;;;;-8.07;100.00;100811.03;7395239;19;20246;-48
2021/12/25 07:11:56;;;;;;;17.13;4.70;;;;;;;-8.01;100.00;100807.63;7400078;19;20123;-49
2021/12/25 07:14:26;;;;;;;7.35;4.50;;;;;;;-8.02;100.00;100810.88;7396400;19;20186;-44
2021/12/25 07:16:55;;;;;;;9.00;3.60;;;;;;;-7.92;100.00;100814.41;7398927;19;20151;-47
2021/12/25 07:19:25;;;;;;;6.20;3.08;;;;;;;-8.01;100.00;100826.75;7396531;19;20196;-49
2021/12/25 07:21:54;;;;;;;9.82;5.05;;;;;;;-7.92;100.00;100822.84;7399771;19;20129;-45
2021/12/25 07:24:24;;;;;;;22.63;8.90;;;;;;;-7.67;100.00;100819.75;7395531;19;20197;-43
2021/12/25 07:26:56;;;;;;;9.50;3.13;;;;;;;-7.77;100.00;100821.22;7398557;19;20162;-46
2021/12/25 07:29:26;;;;;;;8.20;2.90;;;;;;;-7.80;100.00;100823.34;7396076;19;20183;-44
2021/12/25 07:31:55;;;;;;;18.88;3.00;;;;;;;-7.86;100.00;100822.66;7400234;19;20167;-50
2021/12/25 07:34:25;;;;;;;9.52;3.22;;;;;;;-7.80;100.00;100823.34;7393845;19;20188;-45
2021/12/25 07:36:54;;;;;;;8.43;3.25;;;;;;;-7.70;100.00;100819.44;7398221;19;20158;-45
2021/12/25 07:39:24;;;;;;;8.23;4.00;;;;;;;-7.65;100.00;100828.38;7395846;19;20417;-43
2021/12/25 07:41:56;;;;;;;7.70;3.40;;;;;;;-7.76;100.00;100835.53;7399104;19;20139;-46
2021/12/25 07:44:25;;;;;;;6.78;3.42;;;;;;;-7.67;100.00;100830.69;7395622;19;20182;-45
2021/12/25 07:46:55;;;;;;;11.43;4.32;;;;;;;-7.69;100.00;100823.72;7398021;19;20158;-49
2021/12/25 07:49:26;;;;;;;15.32;5.22;;;;;;;-7.71;100.00;100832.69;7395642;19;20182;-46
2021/12/25 07:51:55;;;;;;;6.53;3.00;;;;;;;-7.81;100.00;100829.09;7399070;19;20135;-46
2021/12/25 07:54:25;;;;;;;8.57;2.97;;;;;;;-7.91;100.00;100834.66;7395221;19;20190;-47
2021/12/25 07:56:57;;;;;;;5.85;3.35;;;;;;;-7.91;100.00;100833.75;7397926;19;20154;-45
2021/12/25 07:59:26;;;;;;;11.77;3.60;;;;;;;-7.71;100.00;100843.59;7396049;19;20577;-47
2021/12/25 08:01:56;;;;;;;8.95;3.45;;;;;;;-7.71;100.00;100848.59;7399083;19;20119;-48
2021/12/25 08:04:25;;;;;;;9.38;4.75;;;;;;;-7.68;100.00;100848.06;7393968;19;20197;-46
2021/12/25 08:06:55;;;;;;;13.80;4.05;;;;;;;-7.70;100.00;100849.50;7398262;19;20155;-46
2021/12/25 08:09:28;;;;;;;9.75;4.75;;;;;;;-7.71;100.00;100850.22;7391781;19;20187;-48
2021/12/25 08:12:03;;;;;;;8.85;3.53;;;;;;;-7.63;100.00;100844.47;7398392;19;20126;-47
2021/12/25 08:14:33;;;;;;;8.88;3.80;;;;;;;-7.60;100.00;100847.31;7393955;19;20195;-46
2021/12/25 08:17:04;;;;;;;8.57;3.30;;;;;;;-7.44;100.00;100854.13;7397412;19;20217;-45
2021/12/25 08:19:33;;;;;;;8.70;3.80;;;;;;;-7.44;100.00;100855.00;7394621;19;20242;-47
2021/12/25 08:22:03;;;;;;;10.55;4.25;;;;;;;-7.34;100.00;100865.38;7398093;19;20120;-45
2021/12/25 08:24:32;;;;;;;8.75;4.13;;;;;;;-7.46;100.00;100867.38;7394707;19;20241;-43
2021/12/25 08:27:06;;;;;;;11.90;4.15;;;;;;;-7.90;100.00;100850.59;7396724;19;20222;-48
2021/12/25 08:29:37;;;;;;;18.98;7.18;;;;;;;-7.79;100.00;100841.81;7393503;19;20193;-47
2021/12/25 08:32:10;;;;;;;9.45;3.42;;;;;;;-7.46;100.00;100849.81;7398161;19;20123;-50
2021/12/25 08:34:42;;;;;;;11.55;5.93;;;;;;;-7.21;100.00;100855.13;7395691;19;20183;-49
2021/12/25 08:37:11;;;;;;;11.20;4.75;;;;;;;-7.07;100.00;100856.69;7397015;19;20419;-47
2021/12/25 08:39:41;;;;;;;8.75;4.32;;;;;;;-7.13;100.00;100850.09;7393814;19;20186;-45
2021/12/25 08:42:13;;;;;;;7.93;3.88;;;;;;;-7.25;100.00;100847.97;7397786;19;20127;-46
2021/12/25 08:44:54;;;;;;;22.48;6.65;;;;;;;-6.88;100.00;100855.38;7394498;19;20193;-48
2021/12/25 08:47:24;;;;;;;9.60;4.40;;;;;;;-6.93;100.00;100857.34;7403206;19;20154;-47
2021/12/25 08:49:54;;;;;;;9.50;3.92;;;;;;;-6.92;100.00;100855.03;7401197;19;20202;-44
2021/12/25 08:52:27;;;;;;;7.93;3.40;;;;;;;-6.81;100.00;100862.88;7404971;19;20139;-48
2021/12/25 08:54:56;;;;;;;9.48;3.60;;;;;;;-6.62;100.00;100864.94;7400587;19;20190;-44
2021/12/25 08:57:29;;;;;;;10.30;4.38;;;;;;;-7.00;100.00;100862.41;7402966;19;20162;-48
2021/12/25 08:59:59;;;;;;;6.88;3.55;;;;;;;-6.98;100.00;100861.84;7402134;19;20201;-50
2021/12/25 09:02:28;;;;;;;11.60;3.92;;;;;;;-6.57;100.00;100864.72;7407657;19;20125;-50
2021/12/25 09:04:58;;;;;;;9.48;4.15;;;;;;;-6.77;100.00;100870.03;7399152;19;20193;-45
2021/12/25 09:07:27;;;;;;;11.13;4.40;;;;;;;-6.88;100.00;100865.41;7402696;19;20177;-47
2021/12/25 09:09:57;;;;;;;10.50;4.57;;;;;;;-6.89;100.00;100863.63;7401940;19;20528;-45
2021/12/25 09:12:32;;;;;;;7.30;3.90;;;;;;;-6.87;100.00;100857.16;7404148;19;20119;-49
2021/12/25 09:15:01;;;;;;;120.70;32.88;;;;;;;-6.67;100.00;100867.81;7400213;19;20185;-48
2021/12/25 09:17:31;;;;;;;6.28;3.45;;;;;;;-6.61;100.00;100861.69;7406432;19;20154;-52
2021/12/25 09:20:00;;;;;;;11.35;5.15;;;;;;;-6.17;100.00;100865.75;7400504;19;20456;-46
2021/12/25 09:22:30;;;;;;;11.13;4.95;;;;;;;-6.00;100.00;100864.16;7403929;19;20514;-50
2021/12/25 09:24:59;;;;;;;9.07;4.60;;;;;;;-5.88;100.00;100868.03;7396937;19;20194;-50
2021/12/25 09:27:31;;;;;;;9.80;4.55;;;;;;;-5.97;100.00;100879.56;7401930;19;20482;-50
2021/12/25 09:30:01;;;;;;;14.02;6.38;;;;;;;-5.87;100.00;100874.81;7400274;19;20182;-53
2021/12/25 09:32:30;;;;;;;8.85;4.90;;;;;;;-5.84;100.00;100875.16;7403615;19;20119;-45
2021/12/25 09:35:00;;;;;;;11.57;5.03;;;;;;;-5.83;100.00;100889.50;7400196;19;20193;-44
2021/12/25 09:37:30;;;;;;;9.23;4.30;;;;;;;-5.70;100.00;100889.22;7401698;19;20557;-46
2021/12/25 09:39:59;;;;;;;15.43;6.80;;;;;;;-5.65;100.00;100902.28;7399997;19;20186;-47
2021/12/25 09:42:31;;;;;;;8.95;4.32;;;;;;;-5.73;100.00;100898.06;7403250;19;20129;-46
2021/12/25 09:45:01;;;;;;;11.23;4.95;;;;;;;-5.67;100.00;100892.78;7396985;19;20190;-44
2021/12/25 09:47:31;;;;;;;13.55;6.72;;;;;;;-5.63;100.00;100895.84;7401516;19;20159;-44
2021/12/25 09:50:00;;;;;;;15.90;7.93;;;;;;;-5.58;100.00;100899.72;7399449;19;20189;-44
2021/12/25 09:52:30;;;;;;;24.00;11.07;;;;;;;-5.43;100.00;100887.03;7403149;19;20134;-48
2021/12/25 09:54:59;;;;;;;32.25;13.35;;;;;;;-5.41;100.00;100888.06;7399773;19;20178;-46
2021/12/25 09:57:31;;;;;;;15.18;7.43;;;;;;;-5.32;100.00;100889.06;7399284;19;20169;-44
2021/12/25 10:00:01;;;;;;;16.10;8.60;;;;;;;-5.11;100.00;100902.16;7400887;19;20196;-44
2021/12/25 10:02:30;;;;;;;14.68;7.18;;;;;;;-5.02;100.00;100904.75;7403773;19;20127;-44
2021/12/25 10:05:00;;;;;;;14.30;7.28;;;;;;;-5.03;100.00;100906.38;7398587;19;20193;-47
2021/12/25 10:07:32;;;;;;;19.23;8.90;;;;;;;-4.97;100.00;100903.59;7400991;19;20160;-44
2021/12/25 10:10:05;;;;;;;16.05;8.25;;;;;;;-4.94;100.00;100903.03;7398354;19;20475;-44
2021/12/25 10:12:42;;;;;;;13.55;7.40;;;;;;;-4.87;100.00;100895.44;7402174;19;20179;-46
2021/12/25 10:15:13;;;;;;;18.83;7.68;;;;;;;-4.77;100.00;100897.28;7398867;19;20519;-44
2021/12/25 10:17:49;;;;;;;13.50;6.25;;;;;;;-4.76;100.00;100901.59;7400615;19;20215;-43
2021/12/25 10:20:21;;;;;;;17.52;6.75;;;;;;;-4.64;100.00;100890.28;7401904;19;20250;-46
2021/12/25 10:22:59;;;;;;;13.88;7.30;;;;;;;-4.70;100.00;100889.66;7401942;19;20133;-47
2021/12/25 10:25:32;;;;;;;17.27;8.25;;;;;;;-4.55;100.00;100895.41;7397394;19;20258;-44
2021/12/25 10:28:09;;;;;;;13.32;7.88;;;;;;;-4.55;100.00;100900.44;7399995;19;20165;-51
2021/12/25 10:30:54;;;;;;;16.42;8.45;;;;;;;-4.42;100.00;100889.13;7397548;19;20186;-45
2021/12/25 10:33:35;;;;;;;15.63;7.10;;;;;;;-4.33;100.00;100895.09;7401432;19;20543;-51
2021/12/25 10:36:08;;;;;;;14.27;7.00;;;;;;;-4.18;100.00;100895.78;7396868;19;20190;-41
2021/12/25 10:38:38;;;;;;;15.57;7.75;;;;;;;-4.19;100.00;100896.53;7403980;19;20155;-47
2021/12/25 10:41:20;;;;;;;16.60;6.95;;;;;;;-4.25;100.00;100880.78;7400896;19;20207;-46
2021/12/25 10:43:55;;;;;;;12.40;6.85;;;;;;;-4.25;100.00;100888.31;7401170;19;20380;-47
2021/12/25 10:46:24;;;;;;;13.13;6.55;;;;;;;-4.22;100.00;100893.66;7398650;19;20242;-45
2021/12/25 10:48:54;;;;;;;15.77;7.75;;;;;;;-3.98;100.00;100899.44;7395937;19;20581;-42
2021/12/25 10:51:29;;;;;;;18.25;6.80;;;;;;;-3.87;100.00;100892.97;7400369;19;20405;-45
2021/12/25 10:53:59;;;;;;;12.32;6.05;;;;;;;-3.84;100.00;100895.81;7396694;19;20130;-47
2021/12/25 10:56:36;;;;;;;11.80;6.72;;;;;;;-3.77;100.00;100883.09;7396950;19;20131;-47
2021/12/25 10:59:11;;;;;;;13.32;6.28;;;;;;;-3.56;100.00;100885.97;7394620;19;20122;-44
2021/12/25 11:01:43;;;;;;;18.20;6.80;;;;;;;-3.47;100.00;100881.88;7396673;19;20144;-45
2021/12/25 11:04:29;;;;;;;11.80;6.32;;;;;;;-3.55;100.00;100878.56;7393626;19;20183;-45
2021/12/25 11:07:00;;;;;;;10.15;5.25;;;;;;;-3.22;100.00;100885.94;7395972;19;20158;-46
2021/12/25 11:09:29;;;;;;;14.05;5.70;;;;;;;-3.12;100.00;100884.47;7393566;19;20189;-46
2021/12/25 11:12:17;;;;;;;10.60;4.70;;;;;;;-3.22;100.00;100885.94;7398028;19;20175;-48
2021/12/25 11:15:11;;;;;;;13.90;5.85;;;;;;;-3.57;100.00;100886.72;7393803;19;20516;-44
2021/12/25 11:17:42;;;;;;;10.35;5.53;;;;;;;-3.32;100.00;100880.00;7398113;19;20218;-45
2021/12/25 11:20:18;;;;;;;14.88;5.80;;;;;;;-3.16;100.00;100878.97;7392517;19;20289;-47
2021/12/25 11:22:51;;;;;;;11.45;4.88;;;;;;;-3.05;100.00;100877.50;7397470;19;20114;-44
2021/12/25 11:25:22;;;;;;;11.93;4.93;;;;;;;-3.19;100.00;100877.03;7394162;19;20194;-42
2021/12/25 11:27:52;;;;;;;18.50;5.55;;;;;;;-3.09;100.00;100877.94;7395310;19;20159;-46
2021/12/25 11:30:27;;;;;;;9.45;3.22;;;;;;;-3.11;100.00;100880.31;7392860;19;20205;-41
2021/12/25 11:32:57;;;;;;;7.65;4.15;;;;;;;-3.06;100.00;100884.19;7396353;19;20127;-44
2021/12/25 11:35:28;;;;;;;9.88;3.65;;;;;;;-2.92;100.00;100883.00;7392437;19;20182;-47
2021/12/25 11:37:58;;;;;;;10.48;3.65;;;;;;;-2.93;100.00;100891.31;7396205;19;20162;-41
2021/12/25 11:40:30;;;;;;;10.32;3.80;;;;;;;-3.01;100.00;100894.72;7391319;19;20258;-46
2021/12/25 11:43:03;;;;;;;4.57;2.40;;;;;;;-3.04;100.00;100902.00;7398288;19;20141;-45
2021/12/25 11:45:39;;;;;;;11.48;3.95;;;;;;;-2.86;100.00;100901.28;7393883;19;20253;-42
2021/12/25 11:48:17;;;;;;;11.63;3.72;;;;;;;-2.75;100.00;100896.38;7396316;19;20158;-44
2021/12/25 11:50:48;;;;;;;10.98;3.17;;;;;;;-2.81;100.00;100890.75;7392930;19;20184;-44
2021/12/25 11:53:22;;;;;;;5.43;2.97;;;;;;;-2.80;100.00;100895.03;7398519;19;20135;-44
2021/12/25 11:58:49;;;;;;;7.57;3.33;;;;;;;-2.68;100.00;100898.75;7396597;19;20167;-49
2021/12/25 12:01:30;;;;;;;5.80;3.38;;;;;;;-2.48;100.00;100890.59;7397693;19;20237;-45
2021/12/25 12:04:01;;;;;;;8.05;3.72;;;;;;;-2.44;100.00;100891.78;7395172;19;20188;-46
2021/12/25 12:06:59;;;;;;;7.18;3.25;;;;;;;-2.31;100.00;100894.72;7397047;19;20187;-45
2021/12/25 12:09:31;;;;;;;9.02;3.50;;;;;;;-2.44;100.00;100896.84;7394137;19;20185;-50
2021/12/25 12:12:17;;;;;;;5.05;2.53;;;;;;;-2.50;100.00;100887.03;7398342;19;20449;-46
2021/12/25 12:14:47;;;;;;;9.27;3.30;;;;;;;-2.29;100.00;100893.97;7393116;19;20192;-44
2021/12/25 12:17:32;;;;;;;8.02;3.45;;;;;;;-2.29;100.00;100888.91;7397405;19;20153;-44
2021/12/25 12:20:04;;;;;;;7.05;3.28;;;;;;;-2.34;100.00;100891.03;7397158;19;20265;-44
2021/12/25 12:22:56;;;;;;;7.85;3.30;;;;;;;-2.26;100.00;100880.00;7406100;19;20158;-43